Rba Guardian — 3EIM4 — position and weather

sailwx.info

Track history (hours):
 
Tides and Currents Weather Stations Pressure Air Temp Water Temp Dewpoint Dewpoint Depression Visibility Wind Speed Wind Dir Waves Ship Positions

Rba Guardian

Last reported at 2017-Nov-17 13:45 UTC. Time now 2017-Nov-18 15:55 UTC.
Position N 40°56' E 029°01'.

Length 229 m; draft 9 m.

Type: Cargo ship. MMSI: 351597000.

Date/timePositionNaut miles runAvg speedWind from/ knotsBaromVisibWave heightAir tempDewpointWater temp
2017-Nov-17 13:45N 40°56' E 029°01'2 6.9
2017-Nov-17 13:28N 40°55' E 029°03'3 6.8
2017-Nov-17 13:00N 40°54' E 029°07'3 6.4
2017-Nov-17 12:30N 40°53' E 029°11'0 0.4
2017-Nov-17 11:38N 40°53' E 029°11'0 0.0
2017-Nov-17 10:32N 40°53' E 029°11'0 0.0
2017-Nov-17 10:08N 40°53' E 029°11'0 0.1
2017-Nov-17 09:50N 40°53' E 029°11'0 0.0
2017-Nov-17 09:14N 40°53' E 029°11'0 0.0
2017-Nov-17 08:56N 40°53' E 029°11'0 0.0
2017-Nov-17 07:50N 40°53' E 029°11'0 0.0
2017-Nov-17 07:26N 40°53' E 029°11'0 0.0
2017-Nov-17 06:56N 40°53' E 029°11'0 0.0
2017-Nov-17 06:26N 40°53' E 029°11'0 0.0
2017-Nov-17 05:56N 40°53' E 029°11'0 0.0
2017-Nov-17 05:26N 40°53' E 029°11'0 0.0
2017-Nov-17 04:56N 40°53' E 029°11'0 0.0
2017-Nov-17 03:14N 40°53' E 029°12'0 0.1
2017-Nov-17 02:56N 40°53' E 029°12'0 0.0
2017-Nov-17 02:26N 40°53' E 029°11'0 0.0
2017-Nov-17 01:44N 40°53' E 029°11'0 0.1
2017-Nov-17 01:26N 40°53' E 029°12'0 0.0
2017-Nov-17 00:56N 40°53' E 029°12'0 0.0
2017-Nov-17 00:20N 40°53' E 029°12'0 0.0
2017-Nov-16 23:56N 40°53' E 029°12'0 0.0
2017-Nov-16 23:08N 40°53' E 029°12'0 0.0
2017-Nov-16 22:56N 40°53' E 029°12'0 0.0
2017-Nov-16 21:50N 40°53' E 029°12'427620525.4
2017-Nov-16 21:37S 30°22' E 030°49'1 8.7
2017-Nov-16 21:28S 30°21' E 030°50'4275101250.3
2017-Nov-16 21:26N 40°53' E 029°12'42719445.3
2017-Nov-16 20:58S 30°18' E 030°52'427189923.5
2017-Nov-16 20:56N 40°53' E 029°12'426810181.9
2017-Nov-16 20:30S 30°14' E 030°54'426852082.7
2017-Nov-16 20:25N 40°53' E 029°11'426410133.4
2017-Nov-16 20:00S 30°11' E 030°57'426454440.3
2017-Nov-16 19:56N 40°53' E 029°12'426110166.3
2017-Nov-16 19:30S 30°07' E 030°59'426123493.0
2017-Nov-16 19:20N 40°53' E 029°11'425813249.7
2017-Nov-16 19:00S 30°04' E 031°02'425854554.6
2017-Nov-16 18:56N 40°53' E 029°11'425510151.7
2017-Nov-16 18:30S 30°01' E 031°04'425552283.2
2017-Nov-16 18:26N 40°53' E 029°11'425210165.1
2017-Nov-16 18:00S 29°58' E 031°06'425252248.0
2017-Nov-16 17:56N 40°53' E 029°11'425010091.8
2017-Nov-16 17:30S 29°56' E 031°08'425015268.7
2017-Nov-16 17:14N 40°53' E 029°11'424819380.9
2017-Nov-16 17:00S 29°53' E 031°10'424852368.3
2017-Nov-16 16:56N 40°53' E 029°12'424610142.1
2017-Nov-16 16:30S 29°51' E 031°11'424652342.9
2017-Nov-16 16:26N 40°53' E 029°12'424510127.1
2017-Nov-16 16:00S 29°51' E 031°12'424552514.8
2017-Nov-16 15:56N 40°53' E 029°11'424410124.5
2017-Nov-16 15:30S 29°50' E 031°13'424452501.9
2017-Nov-16 15:26N 40°53' E 029°12'424310123.3
2017-Nov-16 15:00S 29°49' E 031°13'424351959.3
2017-Nov-16 14:56N 40°53' E 029°12'424210141.0
2017-Nov-16 14:30S 29°48' E 031°16'2 4.8
2017-Nov-16 14:00S 29°47' E 031°18'424115087.4
2017-Nov-16 13:44N 40°53' E 029°11'424019150.3
2017-Nov-16 13:30S 29°45' E 031°21'424053553.6
2017-Nov-16 13:25N 40°53' E 029°11'423810069.8
2017-Nov-16 13:00S 29°43' E 031°24'423853907.3
2017-Nov-16 12:56N 40°53' E 029°11'423610111.4
2017-Nov-16 12:30S 29°41' E 031°27'423652398.3
2017-Nov-16 12:26N 40°53' E 029°12'423310112.6
2017-Nov-16 12:00S 29°38' E 031°30'423351485.6
2017-Nov-16 11:55N 40°53' E 029°11'423110119.7
2017-Nov-16 11:30S 29°36' E 031°33'423115019.8
2017-Nov-16 11:14N 40°53' E 029°11'422819341.7
2017-Nov-16 11:00S 29°33' E 031°36'422852309.0
2017-Nov-16 10:56N 40°53' E 029°11'422610096.2
2017-Nov-16 10:30S 29°31' E 031°40'3 7.0
2017-Nov-16 10:00S 29°29' E 031°43'422411084.4
2017-Nov-16 09:38N 40°53' E 029°11'422235515.0
2017-Nov-16 09:30S 29°27' E 031°46'422223313.5
2017-Nov-16 09:20N 40°53' E 029°11'422013233.6
2017-Nov-16 09:00S 29°25' E 031°49'3 6.3
2017-Nov-16 08:30S 29°22' E 031°52'42188823.4
2017-Nov-16 08:02N 40°53' E 029°12'4216140524.2
2017-Nov-16 08:00S 29°20' E 031°54'421659750.5
2017-Nov-16 07:56N 40°53' E 029°11'0 0.0
2017-Nov-16 07:26N 40°53' E 029°11'0 0.0
2017-Nov-16 06:14N 40°53' E 029°11'0 0.0
2017-Nov-16 05:50N 40°53' E 029°11'0 0.1
2017-Nov-16 04:44N 40°53' E 029°11'0 0.0
2017-Nov-16 04:20N 40°53' E 029°11'0 0.0
2017-Nov-16 00:26N 40°53' E 029°11'0 0.0
2017-Nov-15 23:56N 40°53' E 029°11'0 0.0
2017-Nov-15 23:26N 40°53' E 029°11'0 0.0
2017-Nov-15 22:38N 40°53' E 029°11'0 0.0
2017-Nov-15 22:20N 40°53' E 029°11'0 0.0
2017-Nov-15 21:56N 40°53' E 029°11'0 0.0
2017-Nov-15 21:20N 40°53' E 029°11'0 0.1
2017-Nov-15 20:56N 40°53' E 029°11'0 0.0
2017-Nov-15 20:25N 40°53' E 029°11'0 0.0
2017-Nov-15 19:55N 40°53' E 029°11'0 0.0
2017-Nov-15 19:25N 40°53' E 029°11'0 0.0
2017-Nov-15 18:55N 40°53' E 029°11'0 0.0
2017-Nov-15 18:25N 40°53' E 029°11'0 0.0
2017-Nov-15 17:56N 40°53' E 029°11'0 0.0
2017-Nov-15 17:26N 40°53' E 029°11'0 0.0
2017-Nov-15 16:56N 40°53' E 029°11'0 0.0
2017-Nov-15 16:20N 40°53' E 029°11'0 0.0
2017-Nov-15 15:56N 40°53' E 029°11'0 0.0
2017-Nov-15 15:26N 40°53' E 029°11'0 0.0
2017-Nov-15 14:43N 40°53' E 029°11'0 0.0
2017-Nov-15 14:20N 40°53' E 029°11'0 0.0
2017-Nov-15 13:44N 40°53' E 029°11'0 0.0
2017-Nov-15 13:14N 40°53' E 029°11'0 0.0
2017-Nov-15 12:50N 40°53' E 029°11'0 0.0
2017-Nov-15 12:20N 40°53' E 029°11'0 0.0
2017-Nov-15 11:50N 40°53' E 029°11'0 0.1
2017-Nov-15 11:14N 40°53' E 029°11'0 0.1
2017-Nov-15 10:50N 40°53' E 029°11'0 0.1
2017-Nov-15 10:26N 40°53' E 029°11'0 0.0
2017-Nov-15 01:32N 40°53' E 029°12'0 0.0
2017-Nov-15 01:26N 40°53' E 029°11'0 0.0
2017-Nov-15 00:56N 40°53' E 029°11'0 0.0
2017-Nov-15 00:19N 40°53' E 029°12'0 0.0
2017-Nov-14 23:44N 40°53' E 029°11'0 0.0
2017-Nov-14 23:26N 40°53' E 029°12'0 0.0
2017-Nov-14 22:56N 40°53' E 029°11'0 0.0
2017-Nov-14 22:20N 40°53' E 029°11'0 0.0
2017-Nov-14 21:56N 40°53' E 029°11'0 0.0
2017-Nov-14 21:26N 40°53' E 029°11'0 0.0
2017-Nov-14 20:44N 40°53' E 029°11'0 0.0
2017-Nov-14 20:26N 40°53' E 029°12'0 0.0
2017-Nov-14 19:49N 40°53' E 029°11'0 0.0
2017-Nov-14 19:26N 40°53' E 029°12'0 0.0
2017-Nov-14 18:56N 40°53' E 029°11'0 0.0
2017-Nov-14 18:26N 40°53' E 029°12'0 0.0
2017-Nov-14 17:50N 40°53' E 029°11'0 0.0
2017-Nov-14 17:26N 40°53' E 029°11'0 0.0
2017-Nov-14 16:50N 40°53' E 029°11'0 0.0
2017-Nov-14 16:20N 40°53' E 029°11'0 0.0
2017-Nov-14 15:56N 40°53' E 029°12'0 0.0
2017-Nov-14 15:20N 40°53' E 029°11'0 0.0
2017-Nov-14 14:50N 40°53' E 029°11'0 0.0
2017-Nov-14 14:26N 40°53' E 029°12'0 0.0
2017-Nov-14 13:38N 40°53' E 029°12'0 0.0
2017-Nov-14 13:26N 40°53' E 029°12'0 0.0
2017-Nov-14 12:50N 40°53' E 029°12'0 0.0
2017-Nov-14 12:20N 40°53' E 029°12'0 0.0
2017-Nov-14 11:44N 40°53' E 029°12'0 0.0
2017-Nov-14 11:25N 40°53' E 029°12'0 0.0
2017-Nov-14 10:44N 40°53' E 029°12'0 0.0
2017-Nov-14 10:20N 40°53' E 029°12'0 0.0
2017-Nov-14 09:55N 40°53' E 029°12'0 0.0
2017-Nov-14 09:20N 40°53' E 029°12'0 0.0
2017-Nov-14 08:56N 40°53' E 029°12'0 0.0
2017-Nov-14 08:26N 40°53' E 029°12'0 0.0
2017-Nov-14 07:49N 40°53' E 029°12'0 0.0
2017-Nov-14 07:25N 40°53' E 029°11'0 0.0
2017-Nov-14 06:20N 40°53' E 029°12'0 0.0
2017-Nov-14 05:56N 40°53' E 029°12'0 0.0
2017-Nov-14 05:20N 40°53' E 029°12'0 0.0
2017-Nov-14 04:55N 40°53' E 029°12'0 0.0
2017-Nov-14 04:26N 40°53' E 029°11'0 0.0
2017-Nov-14 03:50N 40°53' E 029°12'0 0.0
2017-Nov-14 03:14N 40°53' E 029°11'0 0.0
2017-Nov-14 02:50N 40°53' E 029°11'0 0.0
2017-Nov-14 02:20N 40°53' E 029°11'0 0.0
2017-Nov-14 01:38N 40°53' E 029°11'0 0.1
2017-Nov-14 01:26N 40°53' E 029°11'0 0.1
2017-Nov-14 00:50N 40°53' E 029°11'0 0.0
2017-Nov-14 00:20N 40°53' E 029°11'0 0.1
2017-Nov-13 23:56N 40°53' E 029°11'0 0.0
2017-Nov-13 23:25N 40°53' E 029°11'0 0.0
2017-Nov-13 22:50N 40°53' E 029°11'0 0.1
2017-Nov-13 22:26N 40°53' E 029°11'0 0.0
2017-Nov-13 21:32N 40°53' E 029°11'  
2017-Nov-10 23:13N 45°14' E 036°28'2 9.4
2017-Nov-10 22:59N 45°16' E 036°28'4 8.4
2017-Nov-10 22:30N 45°19' E 036°32'510.6
2017-Nov-10 22:01N 45°21' E 036°38'3 6.9
2017-Nov-10 21:30N 45°24' E 036°40'4 8.0
2017-Nov-10 21:00N 45°28' E 036°38'0 0.2
2017-Nov-10 20:30N 45°28' E 036°38'0 0.0
2017-Nov-10 19:59N 45°28' E 036°38'0 0.0
2017-Nov-10 19:28N 45°28' E 036°38'0 0.0
2017-Nov-10 19:00N 45°28' E 036°38'0 0.0
2017-Nov-10 17:57N 45°28' E 036°38'0 0.1
2017-Nov-10 17:30N 45°28' E 036°38'3 5.4
2017-Nov-10 17:00N 45°27' E 036°42'5 9.8
2017-Nov-10 16:30N 45°28' E 036°49'  
Track history (hours):
 
Tides and Currents Weather Stations Pressure Air Temp Water Temp Dewpoint Dewpoint Depression Visibility Wind Speed Wind Dir Waves Ship Positions

Rba Guardian

Last reported at 2017-Nov-17 13:45 UTC. Time now 2017-Nov-18 15:55 UTC.
Position N 40°56' E 029°01'.

Length 229 m; draft 9 m.

Type: Cargo ship. MMSI: 351597000.

Date/timePositionNaut miles runAvg speedWind from/ knotsBaromVisibWave heightAir tempDewpointWater temp
2017-Nov-17 13:45N 40°56' E 029°01'2 6.9
2017-Nov-17 13:28N 40°55' E 029°03'3 6.8
2017-Nov-17 13:00N 40°54' E 029°07'3 6.4
2017-Nov-17 12:30N 40°53' E 029°11'0 0.4
2017-Nov-17 11:38N 40°53' E 029°11'0 0.0
2017-Nov-17 10:32N 40°53' E 029°11'0 0.0
2017-Nov-17 10:08N 40°53' E 029°11'0 0.1
2017-Nov-17 09:50N 40°53' E 029°11'0 0.0
2017-Nov-17 09:14N 40°53' E 029°11'0 0.0
2017-Nov-17 08:56N 40°53' E 029°11'0 0.0
2017-Nov-17 07:50N 40°53' E 029°11'0 0.0
2017-Nov-17 07:26N 40°53' E 029°11'0 0.0
2017-Nov-17 06:56N 40°53' E 029°11'0 0.0
2017-Nov-17 06:26N 40°53' E 029°11'0 0.0
2017-Nov-17 05:56N 40°53' E 029°11'0 0.0
2017-Nov-17 05:26N 40°53' E 029°11'0 0.0
2017-Nov-17 04:56N 40°53' E 029°11'0 0.0
2017-Nov-17 03:14N 40°53' E 029°12'0 0.1
2017-Nov-17 02:56N 40°53' E 029°12'0 0.0
2017-Nov-17 02:26N 40°53' E 029°11'0 0.0
2017-Nov-17 01:44N 40°53' E 029°11'0 0.1
2017-Nov-17 01:26N 40°53' E 029°12'0 0.0
2017-Nov-17 00:56N 40°53' E 029°12'0 0.0
2017-Nov-17 00:20N 40°53' E 029°12'0 0.0
2017-Nov-16 23:56N 40°53' E 029°12'0 0.0
2017-Nov-16 23:08N 40°53' E 029°12'0 0.0
2017-Nov-16 22:56N 40°53' E 029°12'0 0.0
2017-Nov-16 21:50N 40°53' E 029°12'427620525.4
2017-Nov-16 21:37S 30°22' E 030°49'1 8.7
2017-Nov-16 21:28S 30°21' E 030°50'4275101250.3
2017-Nov-16 21:26N 40°53' E 029°12'42719445.3
2017-Nov-16 20:58S 30°18' E 030°52'427189923.5
2017-Nov-16 20:56N 40°53' E 029°12'426810181.9
2017-Nov-16 20:30S 30°14' E 030°54'426852082.7
2017-Nov-16 20:25N 40°53' E 029°11'426410133.4
2017-Nov-16 20:00S 30°11' E 030°57'426454440.3
2017-Nov-16 19:56N 40°53' E 029°12'426110166.3
2017-Nov-16 19:30S 30°07' E 030°59'426123493.0
2017-Nov-16 19:20N 40°53' E 029°11'425813249.7
2017-Nov-16 19:00S 30°04' E 031°02'425854554.6
2017-Nov-16 18:56N 40°53' E 029°11'425510151.7
2017-Nov-16 18:30S 30°01' E 031°04'425552283.2
2017-Nov-16 18:26N 40°53' E 029°11'425210165.1
2017-Nov-16 18:00S 29°58' E 031°06'425252248.0
2017-Nov-16 17:56N 40°53' E 029°11'425010091.8
2017-Nov-16 17:30S 29°56' E 031°08'425015268.7
2017-Nov-16 17:14N 40°53' E 029°11'424819380.9
2017-Nov-16 17:00S 29°53' E 031°10'424852368.3
2017-Nov-16 16:56N 40°53' E 029°12'424610142.1
2017-Nov-16 16:30S 29°51' E 031°11'424652342.9
2017-Nov-16 16:26N 40°53' E 029°12'424510127.1
2017-Nov-16 16:00S 29°51' E 031°12'424552514.8
2017-Nov-16 15:56N 40°53' E 029°11'424410124.5
2017-Nov-16 15:30S 29°50' E 031°13'424452501.9
2017-Nov-16 15:26N 40°53' E 029°12'424310123.3
2017-Nov-16 15:00S 29°49' E 031°13'424351959.3
2017-Nov-16 14:56N 40°53' E 029°12'424210141.0
2017-Nov-16 14:30S 29°48' E 031°16'2 4.8
2017-Nov-16 14:00S 29°47' E 031°18'424115087.4
2017-Nov-16 13:44N 40°53' E 029°11'424019150.3
2017-Nov-16 13:30S 29°45' E 031°21'424053553.6
2017-Nov-16 13:25N 40°53' E 029°11'423810069.8
2017-Nov-16 13:00S 29°43' E 031°24'423853907.3
2017-Nov-16 12:56N 40°53' E 029°11'423610111.4
2017-Nov-16 12:30S 29°41' E 031°27'423652398.3
2017-Nov-16 12:26N 40°53' E 029°12'423310112.6
2017-Nov-16 12:00S 29°38' E 031°30'423351485.6
2017-Nov-16 11:55N 40°53' E 029°11'423110119.7
2017-Nov-16 11:30S 29°36' E 031°33'423115019.8
2017-Nov-16 11:14N 40°53' E 029°11'422819341.7
2017-Nov-16 11:00S 29°33' E 031°36'422852309.0
2017-Nov-16 10:56N 40°53' E 029°11'422610096.2
2017-Nov-16 10:30S 29°31' E 031°40'3 7.0
2017-Nov-16 10:00S 29°29' E 031°43'422411084.4
2017-Nov-16 09:38N 40°53' E 029°11'422235515.0
2017-Nov-16 09:30S 29°27' E 031°46'422223313.5
2017-Nov-16 09:20N 40°53' E 029°11'422013233.6
2017-Nov-16 09:00S 29°25' E 031°49'3 6.3
2017-Nov-16 08:30S 29°22' E 031°52'42188823.4
2017-Nov-16 08:02N 40°53' E 029°12'4216140524.2
2017-Nov-16 08:00S 29°20' E 031°54'421659750.5
2017-Nov-16 07:56N 40°53' E 029°11'0 0.0
2017-Nov-16 07:26N 40°53' E 029°11'0 0.0
2017-Nov-16 06:14N 40°53' E 029°11'0 0.0
2017-Nov-16 05:50N 40°53' E 029°11'0 0.1
2017-Nov-16 04:44N 40°53' E 029°11'0 0.0
2017-Nov-16 04:20N 40°53' E 029°11'0 0.0
2017-Nov-16 00:26N 40°53' E 029°11'0 0.0
2017-Nov-15 23:56N 40°53' E 029°11'0 0.0
2017-Nov-15 23:26N 40°53' E 029°11'0 0.0
2017-Nov-15 22:38N 40°53' E 029°11'0 0.0
2017-Nov-15 22:20N 40°53' E 029°11'0 0.0
2017-Nov-15 21:56N 40°53' E 029°11'0 0.0
2017-Nov-15 21:20N 40°53' E 029°11'0 0.1
2017-Nov-15 20:56N 40°53' E 029°11'0 0.0
2017-Nov-15 20:25N 40°53' E 029°11'0 0.0
2017-Nov-15 19:55N 40°53' E 029°11'0 0.0
2017-Nov-15 19:25N 40°53' E 029°11'0 0.0
2017-Nov-15 18:55N 40°53' E 029°11'0 0.0
2017-Nov-15 18:25N 40°53' E 029°11'0 0.0
2017-Nov-15 17:56N 40°53' E 029°11'0 0.0
2017-Nov-15 17:26N 40°53' E 029°11'0 0.0
2017-Nov-15 16:56N 40°53' E 029°11'0 0.0
2017-Nov-15 16:20N 40°53' E 029°11'0 0.0
2017-Nov-15 15:56N 40°53' E 029°11'0 0.0
2017-Nov-15 15:26N 40°53' E 029°11'0 0.0
2017-Nov-15 14:43N 40°53' E 029°11'0 0.0
2017-Nov-15 14:20N 40°53' E 029°11'0 0.0
2017-Nov-15 13:44N 40°53' E 029°11'0 0.0
2017-Nov-15 13:14N 40°53' E 029°11'0 0.0
2017-Nov-15 12:50N 40°53' E 029°11'0 0.0
2017-Nov-15 12:20N 40°53' E 029°11'0 0.0
2017-Nov-15 11:50N 40°53' E 029°11'0 0.1
2017-Nov-15 11:14N 40°53' E 029°11'0 0.1
2017-Nov-15 10:50N 40°53' E 029°11'0 0.1
2017-Nov-15 10:26N 40°53' E 029°11'0 0.0
2017-Nov-15 01:32N 40°53' E 029°12'0 0.0
2017-Nov-15 01:26N 40°53' E 029°11'0 0.0
2017-Nov-15 00:56N 40°53' E 029°11'0 0.0
2017-Nov-15 00:19N 40°53' E 029°12'0 0.0
2017-Nov-14 23:44N 40°53' E 029°11'0 0.0
2017-Nov-14 23:26N 40°53' E 029°12'0 0.0
2017-Nov-14 22:56N 40°53' E 029°11'0 0.0
2017-Nov-14 22:20N 40°53' E 029°11'0 0.0
2017-Nov-14 21:56N 40°53' E 029°11'0 0.0
2017-Nov-14 21:26N 40°53' E 029°11'0 0.0
2017-Nov-14 20:44N 40°53' E 029°11'0 0.0
2017-Nov-14 20:26N 40°53' E 029°12'0 0.0
2017-Nov-14 19:49N 40°53' E 029°11'0 0.0
2017-Nov-14 19:26N 40°53' E 029°12'0 0.0
2017-Nov-14 18:56N 40°53' E 029°11'0 0.0
2017-Nov-14 18:26N 40°53' E 029°12'0 0.0
2017-Nov-14 17:50N 40°53' E 029°11'0 0.0
2017-Nov-14 17:26N 40°53' E 029°11'0 0.0
2017-Nov-14 16:50N 40°53' E 029°11'0 0.0
2017-Nov-14 16:20N 40°53' E 029°11'0 0.0
2017-Nov-14 15:56N 40°53' E 029°12'0 0.0
2017-Nov-14 15:20N 40°53' E 029°11'0 0.0
2017-Nov-14 14:50N 40°53' E 029°11'0 0.0
2017-Nov-14 14:26N 40°53' E 029°12'0 0.0
2017-Nov-14 13:38N 40°53' E 029°12'0 0.0
2017-Nov-14 13:26N 40°53' E 029°12'0 0.0
2017-Nov-14 12:50N 40°53' E 029°12'0 0.0
2017-Nov-14 12:20N 40°53' E 029°12'0 0.0
2017-Nov-14 11:44N 40°53' E 029°12'0 0.0
2017-Nov-14 11:25N 40°53' E 029°12'0 0.0
2017-Nov-14 10:44N 40°53' E 029°12'0 0.0
2017-Nov-14 10:20N 40°53' E 029°12'0 0.0
2017-Nov-14 09:55N 40°53' E 029°12'0 0.0
2017-Nov-14 09:20N 40°53' E 029°12'0 0.0
2017-Nov-14 08:56N 40°53' E 029°12'0 0.0
2017-Nov-14 08:26N 40°53' E 029°12'0 0.0
2017-Nov-14 07:49N 40°53' E 029°12'0 0.0
2017-Nov-14 07:25N 40°53' E 029°11'0 0.0
2017-Nov-14 06:20N 40°53' E 029°12'0 0.0
2017-Nov-14 05:56N 40°53' E 029°12'0 0.0
2017-Nov-14 05:20N 40°53' E 029°12'0 0.0
2017-Nov-14 04:55N 40°53' E 029°12'0 0.0
2017-Nov-14 04:26N 40°53' E 029°11'0 0.0
2017-Nov-14 03:50N 40°53' E 029°12'0 0.0
2017-Nov-14 03:14N 40°53' E 029°11'0 0.0
2017-Nov-14 02:50N 40°53' E 029°11'0 0.0
2017-Nov-14 02:20N 40°53' E 029°11'0 0.0
2017-Nov-14 01:38N 40°53' E 029°11'0 0.1
2017-Nov-14 01:26N 40°53' E 029°11'0 0.1
2017-Nov-14 00:50N 40°53' E 029°11'0 0.0
2017-Nov-14 00:20N 40°53' E 029°11'0 0.1
2017-Nov-13 23:56N 40°53' E 029°11'0 0.0
2017-Nov-13 23:25N 40°53' E 029°11'0 0.0
2017-Nov-13 22:50N 40°53' E 029°11'0 0.1
2017-Nov-13 22:26N 40°53' E 029°11'0 0.0
2017-Nov-13 21:32N 40°53' E 029°11'  
2017-Nov-10 23:13N 45°14' E 036°28'2 9.4
2017-Nov-10 22:59N 45°16' E 036°28'4 8.4
2017-Nov-10 22:30N 45°19' E 036°32'510.6
2017-Nov-10 22:01N 45°21' E 036°38'3 6.9
2017-Nov-10 21:30N 45°24' E 036°40'4 8.0
2017-Nov-10 21:00N 45°28' E 036°38'0 0.2
2017-Nov-10 20:30N 45°28' E 036°38'0 0.0
2017-Nov-10 19:59N 45°28' E 036°38'0 0.0
2017-Nov-10 19:28N 45°28' E 036°38'0 0.0
2017-Nov-10 19:00N 45°28' E 036°38'0 0.0
2017-Nov-10 17:57N 45°28' E 036°38'0 0.1
2017-Nov-10 17:30N 45°28' E 036°38'3 5.4
2017-Nov-10 17:00N 45°27' E 036°42'5 9.8
2017-Nov-10 16:30N 45°28' E 036°49'  

Dump ship's entire track history